Roosevelt Island, New York
Current Conditions -  °F | °C
As of 4:51 PM on Thursday 18 Dec 2014 (Local Time) from KNYC Reporting Station
Overcast Overcast  
Wind Chill: 33°   Ceiling: 3500
Heat Index: 40°   Visibility: 10mi
Dew Point: 24°   Wind: 10mph
Humidity: 53%   Direction: 320°NW
Pressure: 29.99"   Gusts: 23mph
Location:  40.7621°N, 73.9496°W
Report Text: KNYC 182151Z AUTO 32009G20KT 10SM OVC035 04/M04 A2999 RMK AO2 SLP146 T00441044 $
Loading
Personal Weather Stations






























Interactive Weather Map New forecast layout! Learn more

10-Day Weather Forecast

Advertisements
Track Severe Weather on mobile